sensor_id;sensor_type;location;lat;lon;timestamp;temperature;humidity
9776;DHT22;4927;52.472;13.108;2022-08-19T00:03:14;21.80;99.90
9776;DHT22;4927;52.472;13.108;2022-08-19T00:08:20;21.80;99.90
9776;DHT22;4927;52.472;13.108;2022-08-19T00:13:27;21.80;99.90
9776;DHT22;4927;52.472;13.108;2022-08-19T00:18:33;21.80;99.90
9776;DHT22;4927;52.472;13.108;2022-08-19T00:23:40;21.70;99.90
9776;DHT22;4927;52.472;13.108;2022-08-19T00:28:46;21.70;99.90
9776;DHT22;4927;52.472;13.108;2022-08-19T00:33:53;21.70;99.90
9776;DHT22;4927;52.472;13.108;2022-08-19T00:38:59;21.60;99.90
9776;DHT22;4927;52.472;13.108;2022-08-19T00:44:09;21.70;99.90
9776;DHT22;4927;52.472;13.108;2022-08-19T00:49:29;21.60;99.90
9776;DHT22;4927;52.472;13.108;2022-08-19T00:54:35;21.60;99.90
9776;DHT22;4927;52.472;13.108;2022-08-19T00:59:39;21.60;99.90
9776;DHT22;4927;52.472;13.108;2022-08-19T01:04:45;21.60;99.90
9776;DHT22;4927;52.472;13.108;2022-08-19T01:09:51;21.50;99.90
9776;DHT22;4927;52.472;13.108;2022-08-19T01:14:58;21.50;99.90
9776;DHT22;4927;52.472;13.108;2022-08-19T01:20:05;21.50;99.90
9776;DHT22;4927;52.472;13.108;2022-08-19T01:25:13;21.50;99.90
9776;DHT22;4927;52.472;13.108;2022-08-19T01:30:22;21.50;99.90
9776;DHT22;4927;52.472;13.108;2022-08-19T01:35:30;21.20;99.90
9776;DHT22;4927;52.472;13.108;2022-08-19T01:40:33;21.10;99.90
9776;DHT22;4927;52.472;13.108;2022-08-19T01:45:39;21.00;99.90
9776;DHT22;4927;52.472;13.108;2022-08-19T01:50:45;20.90;99.90
9776;DHT22;4927;52.472;13.108;2022-08-19T01:55:51;20.90;99.90
9776;DHT22;4927;52.472;13.108;2022-08-19T02:00:56;20.90;99.90
9776;DHT22;4927;52.472;13.108;2022-08-19T02:06:02;20.80;99.90
9776;DHT22;4927;52.472;13.108;2022-08-19T02:11:09;20.80;99.90
9776;DHT22;4927;52.472;13.108;2022-08-19T02:16:17;20.80;99.90
9776;DHT22;4927;52.472;13.108;2022-08-19T02:21:22;20.80;99.90
9776;DHT22;4927;52.472;13.108;2022-08-19T02:26:28;20.70;99.90
9776;DHT22;4927;52.472;13.108;2022-08-19T02:31:35;20.60;99.90
9776;DHT22;4927;52.472;13.108;2022-08-19T02:36:41;20.50;99.90
9776;DHT22;4927;52.472;13.108;2022-08-19T02:41:47;20.50;99.90
9776;DHT22;4927;52.472;13.108;2022-08-19T02:46:54;20.40;99.90
9776;DHT22;4927;52.472;13.108;2022-08-19T02:52:00;20.20;99.90
9776;DHT22;4927;52.472;13.108;2022-08-19T02:57:06;20.20;99.90
9776;DHT22;4927;52.472;13.108;2022-08-19T03:02:13;20.10;99.90
9776;DHT22;4927;52.472;13.108;2022-08-19T03:07:20;20.10;99.90
9776;DHT22;4927;52.472;13.108;2022-08-19T03:12:26;20.10;99.90
9776;DHT22;4927;52.472;13.108;2022-08-19T03:17:32;20.10;99.90
9776;DHT22;4927;52.472;13.108;2022-08-19T03:22:38;20.10;99.90
9776;DHT22;4927;52.472;13.108;2022-08-19T03:27:45;20.10;99.90
9776;DHT22;4927;52.472;13.108;2022-08-19T03:32:51;20.10;99.90
9776;DHT22;4927;52.472;13.108;2022-08-19T03:37:58;20.20;99.90
9776;DHT22;4927;52.472;13.108;2022-08-19T03:43:04;20.20;99.90
9776;DHT22;4927;52.472;13.108;2022-08-19T03:48:10;20.20;99.90
9776;DHT22;4927;52.472;13.108;2022-08-19T03:53:16;20.20;99.90
9776;DHT22;4927;52.472;13.108;2022-08-19T03:58:23;20.20;99.90
9776;DHT22;4927;52.472;13.108;2022-08-19T04:03:27;20.10;99.90
9776;DHT22;4927;52.472;13.108;2022-08-19T04:08:33;20.10;99.90
9776;DHT22;4927;52.472;13.108;2022-08-19T04:13:40;20.10;99.90
9776;DHT22;4927;52.472;13.108;2022-08-19T04:18:46;20.10;99.90
9776;DHT22;4927;52.472;13.108;2022-08-19T04:35:39;20.10;99.90
9776;DHT22;4927;52.472;13.108;2022-08-19T04:40:49;20.00;99.90
9776;DHT22;4927;52.472;13.108;2022-08-19T04:46:05;20.10;99.90
9776;DHT22;4927;52.472;13.108;2022-08-19T04:51:11;20.00;99.90
9776;DHT22;4927;52.472;13.108;2022-08-19T04:56:17;20.00;99.90
9776;DHT22;4927;52.472;13.108;2022-08-19T05:01:24;20.00;99.90
9776;DHT22;4927;52.472;13.108;2022-08-19T05:06:30;20.00;99.90
9776;DHT22;4927;52.472;13.108;2022-08-19T05:11:37;20.00;99.90
9776;DHT22;4927;52.472;13.108;2022-08-19T05:16:44;20.00;99.90
9776;DHT22;4927;52.472;13.108;2022-08-19T05:21:51;20.20;99.90
9776;DHT22;4927;52.472;13.108;2022-08-19T05:27:04;20.20;99.90
9776;DHT22;4927;52.472;13.108;2022-08-19T05:32:10;20.40;99.90
9776;DHT22;4927;52.472;13.108;2022-08-19T05:37:16;20.50;99.90
9776;DHT22;4927;52.472;13.108;2022-08-19T05:42:21;20.70;99.90
9776;DHT22;4927;52.472;13.108;2022-08-19T05:47:27;20.80;99.90
9776;DHT22;4927;52.472;13.108;2022-08-19T05:52:34;21.00;99.90
9776;DHT22;4927;52.472;13.108;2022-08-19T05:57:40;21.00;99.90
9776;DHT22;4927;52.472;13.108;2022-08-19T06:02:46;21.00;99.90
9776;DHT22;4927;52.472;13.108;2022-08-19T06:07:53;21.10;99.90
9776;DHT22;4927;52.472;13.108;2022-08-19T06:12:57;21.20;99.90
9776;DHT22;4927;52.472;13.108;2022-08-19T06:18:03;21.40;99.90
9776;DHT22;4927;52.472;13.108;2022-08-19T06:23:10;21.60;99.90
9776;DHT22;4927;52.472;13.108;2022-08-19T06:28:16;21.80;99.90
9776;DHT22;4927;52.472;13.108;2022-08-19T06:33:22;21.90;99.90
9776;DHT22;4927;52.472;13.108;2022-08-19T06:38:28;22.00;99.90
9776;DHT22;4927;52.472;13.108;2022-08-19T06:43:35;22.20;99.90
9776;DHT22;4927;52.472;13.108;2022-08-19T06:48:41;22.30;99.90
9776;DHT22;4927;52.472;13.108;2022-08-19T06:53:48;22.30;99.90
9776;DHT22;4927;52.472;13.108;2022-08-19T06:58:54;22.40;99.90
9776;DHT22;4927;52.472;13.108;2022-08-19T07:04:00;22.50;99.90
9776;DHT22;4927;52.472;13.108;2022-08-19T07:09:07;22.50;99.90
9776;DHT22;4927;52.472;13.108;2022-08-19T07:14:13;22.50;99.90
9776;DHT22;4927;52.472;13.108;2022-08-19T07:19:19;22.50;99.90
9776;DHT22;4927;52.472;13.108;2022-08-19T07:24:25;22.60;99.90
9776;DHT22;4927;52.472;13.108;2022-08-19T07:29:36;22.70;99.90
9776;DHT22;4927;52.472;13.108;2022-08-19T07:34:42;22.70;99.90
9776;DHT22;4927;52.472;13.108;2022-08-19T07:39:48;22.80;99.90
9776;DHT22;4927;52.472;13.108;2022-08-19T07:44:55;22.70;99.90
9776;DHT22;4927;52.472;13.108;2022-08-19T07:50:02;22.80;99.90
9776;DHT22;4927;52.472;13.108;2022-08-19T07:55:08;22.80;99.90
9776;DHT22;4927;52.472;13.108;2022-08-19T08:00:15;22.80;99.90
9776;DHT22;4927;52.472;13.108;2022-08-19T08:05:25;22.80;99.90
9776;DHT22;4927;52.472;13.108;2022-08-19T08:10:38;22.90;99.90
9776;DHT22;4927;52.472;13.108;2022-08-19T08:15:44;22.80;99.90
9776;DHT22;4927;52.472;13.108;2022-08-19T08:20:50;22.80;99.90
9776;DHT22;4927;52.472;13.108;2022-08-19T08:25:57;22.80;99.90
9776;DHT22;4927;52.472;13.108;2022-08-19T08:31:03;22.80;99.90
9776;DHT22;4927;52.472;13.108;2022-08-19T08:36:14;22.90;99.90
9776;DHT22;4927;52.472;13.108;2022-08-19T08:46:53;23.00;99.90
9776;DHT22;4927;52.472;13.108;2022-08-19T08:52:04;23.10;99.90
9776;DHT22;4927;52.472;13.108;2022-08-19T08:57:10;23.10;99.90
9776;DHT22;4927;52.472;13.108;2022-08-19T09:02:15;23.10;99.90
9776;DHT22;4927;52.472;13.108;2022-08-19T09:12:55;23.00;99.90
9776;DHT22;4927;52.472;13.108;2022-08-19T09:18:02;23.00;99.90
9776;DHT22;4927;52.472;13.108;2022-08-19T09:23:08;23.00;99.90
9776;DHT22;4927;52.472;13.108;2022-08-19T09:28:14;23.10;99.90
9776;DHT22;4927;52.472;13.108;2022-08-19T09:33:20;23.20;99.90
9776;DHT22;4927;52.472;13.108;2022-08-19T09:38:26;23.20;99.90
9776;DHT22;4927;52.472;13.108;2022-08-19T09:43:33;23.50;99.90
9776;DHT22;4927;52.472;13.108;2022-08-19T09:48:39;23.70;99.90
9776;DHT22;4927;52.472;13.108;2022-08-19T09:53:45;23.90;99.90
9776;DHT22;4927;52.472;13.108;2022-08-19T09:58:52;24.00;99.90
9776;DHT22;4927;52.472;13.108;2022-08-19T10:03:58;24.00;99.90
9776;DHT22;4927;52.472;13.108;2022-08-19T10:09:06;24.10;99.90
9776;DHT22;4927;52.472;13.108;2022-08-19T10:14:11;24.10;99.90
9776;DHT22;4927;52.472;13.108;2022-08-19T10:19:17;24.00;99.90
9776;DHT22;4927;52.472;13.108;2022-08-19T10:24:24;23.90;99.90
9776;DHT22;4927;52.472;13.108;2022-08-19T10:29:30;23.70;99.90
9776;DHT22;4927;52.472;13.108;2022-08-19T10:34:37;23.70;99.90
9776;DHT22;4927;52.472;13.108;2022-08-19T10:39:43;23.50;99.90
9776;DHT22;4927;52.472;13.108;2022-08-19T10:44:49;23.60;99.90
9776;DHT22;4927;52.472;13.108;2022-08-19T10:49:55;23.60;99.90
9776;DHT22;4927;52.472;13.108;2022-08-19T10:55:08;23.80;99.90
9776;DHT22;4927;52.472;13.108;2022-08-19T11:00:21;24.40;99.90
9776;DHT22;4927;52.472;13.108;2022-08-19T11:05:28;24.40;99.90
9776;DHT22;4927;52.472;13.108;2022-08-19T11:10:35;24.70;99.90
9776;DHT22;4927;52.472;13.108;2022-08-19T11:15:41;24.70;99.90
9776;DHT22;4927;52.472;13.108;2022-08-19T11:20:47;24.70;99.90
9776;DHT22;4927;52.472;13.108;2022-08-19T11:25:54;24.60;99.90
9776;DHT22;4927;52.472;13.108;2022-08-19T11:31:00;24.40;99.90
9776;DHT22;4927;52.472;13.108;2022-08-19T11:36:06;24.20;99.90
9776;DHT22;4927;52.472;13.108;2022-08-19T11:41:11;23.90;99.90
9776;DHT22;4927;52.472;13.108;2022-08-19T11:46:17;23.90;99.90
9776;DHT22;4927;52.472;13.108;2022-08-19T11:51:24;23.90;99.90
9776;DHT22;4927;52.472;13.108;2022-08-19T11:56:31;23.70;99.90
9776;DHT22;4927;52.472;13.108;2022-08-19T12:01:37;23.70;99.90
9776;DHT22;4927;52.472;13.108;2022-08-19T12:06:43;23.80;99.90
9776;DHT22;4927;52.472;13.108;2022-08-19T12:11:49;23.90;99.90
9776;DHT22;4927;52.472;13.108;2022-08-19T12:16:56;23.80;99.90
9776;DHT22;4927;52.472;13.108;2022-08-19T12:22:02;23.80;99.90
9776;DHT22;4927;52.472;13.108;2022-08-19T12:27:09;23.80;99.90
9776;DHT22;4927;52.472;13.108;2022-08-19T12:32:15;23.80;99.90
9776;DHT22;4927;52.472;13.108;2022-08-19T12:37:21;23.70;99.90
9776;DHT22;4927;52.472;13.108;2022-08-19T12:42:27;23.60;99.90
9776;DHT22;4927;52.472;13.108;2022-08-19T12:47:34;23.70;99.90
9776;DHT22;4927;52.472;13.108;2022-08-19T12:52:40;23.60;99.90
9776;DHT22;4927;52.472;13.108;2022-08-19T12:57:46;23.50;99.90
9776;DHT22;4927;52.472;13.108;2022-08-19T13:02:53;23.50;99.90
9776;DHT22;4927;52.472;13.108;2022-08-19T13:07:59;23.40;99.90
9776;DHT22;4927;52.472;13.108;2022-08-19T13:13:07;23.50;99.90
9776;DHT22;4927;52.472;13.108;2022-08-19T13:18:10;23.70;99.90
9776;DHT22;4927;52.472;13.108;2022-08-19T13:23:16;23.70;99.90
9776;DHT22;4927;52.472;13.108;2022-08-19T13:28:23;23.50;99.90
9776;DHT22;4927;52.472;13.108;2022-08-19T13:33:29;23.50;99.90
9776;DHT22;4927;52.472;13.108;2022-08-19T13:38:36;23.40;99.90
9776;DHT22;4927;52.472;13.108;2022-08-19T13:43:42;23.40;99.90
9776;DHT22;4927;52.472;13.108;2022-08-19T13:48:49;23.40;99.90
9776;DHT22;4927;52.472;13.108;2022-08-19T13:53:55;23.40;99.90
9776;DHT22;4927;52.472;13.108;2022-08-19T13:59:01;23.60;99.90
9776;DHT22;4927;52.472;13.108;2022-08-19T14:04:08;23.70;99.90
9776;DHT22;4927;52.472;13.108;2022-08-19T14:09:14;23.80;99.90
9776;DHT22;4927;52.472;13.108;2022-08-19T14:14:20;23.90;99.90
9776;DHT22;4927;52.472;13.108;2022-08-19T14:19:26;24.00;99.90
9776;DHT22;4927;52.472;13.108;2022-08-19T14:24:33;24.10;99.90
9776;DHT22;4927;52.472;13.108;2022-08-19T14:29:39;24.20;99.90
9776;DHT22;4927;52.472;13.108;2022-08-19T14:34:45;24.20;99.90
9776;DHT22;4927;52.472;13.108;2022-08-19T14:39:52;24.30;99.90
9776;DHT22;4927;52.472;13.108;2022-08-19T14:44:59;24.30;99.90
9776;DHT22;4927;52.472;13.108;2022-08-19T14:50:08;24.20;99.90
9776;DHT22;4927;52.472;13.108;2022-08-19T14:55:15;24.20;99.90
9776;DHT22;4927;52.472;13.108;2022-08-19T15:00:21;24.10;99.90
9776;DHT22;4927;52.472;13.108;2022-08-19T15:05:27;23.80;99.90
9776;DHT22;4927;52.472;13.108;2022-08-19T15:10:34;23.80;99.90
9776;DHT22;4927;52.472;13.108;2022-08-19T15:15:40;23.70;99.90
9776;DHT22;4927;52.472;13.108;2022-08-19T15:20:46;23.50;99.90
9776;DHT22;4927;52.472;13.108;2022-08-19T15:25:53;23.50;99.90
9776;DHT22;4927;52.472;13.108;2022-08-19T15:30:59;23.40;99.90
9776;DHT22;4927;52.472;13.108;2022-08-19T15:36:06;23.40;99.90
9776;DHT22;4927;52.472;13.108;2022-08-19T15:41:17;23.20;99.90
9776;DHT22;4927;52.472;13.108;2022-08-19T15:46:29;23.10;99.90
9776;DHT22;4927;52.472;13.108;2022-08-19T15:51:35;23.00;99.90
9776;DHT22;4927;52.472;13.108;2022-08-19T15:56:41;22.80;99.90
9776;DHT22;4927;52.472;13.108;2022-08-19T16:01:53;22.80;99.90
9776;DHT22;4927;52.472;13.108;2022-08-19T16:07:05;22.80;99.90
9776;DHT22;4927;52.472;13.108;2022-08-19T16:12:12;22.70;99.90
9776;DHT22;4927;52.472;13.108;2022-08-19T16:17:16;22.60;99.90
9776;DHT22;4927;52.472;13.108;2022-08-19T16:22:27;22.60;99.90
9776;DHT22;4927;52.472;13.108;2022-08-19T16:27:29;22.60;99.90
9776;DHT22;4927;52.472;13.108;2022-08-19T16:32:35;22.50;99.90
9776;DHT22;4927;52.472;13.108;2022-08-19T16:37:41;22.60;99.90
9776;DHT22;4927;52.472;13.108;2022-08-19T16:42:48;22.50;99.90
9776;DHT22;4927;52.472;13.108;2022-08-19T16:47:54;22.40;99.90
9776;DHT22;4927;52.472;13.108;2022-08-19T16:53:00;22.30;99.90
9776;DHT22;4927;52.472;13.108;2022-08-19T16:58:07;22.30;99.90
9776;DHT22;4927;52.472;13.108;2022-08-19T17:03:13;22.20;99.90
9776;DHT22;4927;52.472;13.108;2022-08-19T17:08:20;22.20;99.90
9776;DHT22;4927;52.472;13.108;2022-08-19T17:13:24;22.20;99.90
9776;DHT22;4927;52.472;13.108;2022-08-19T17:18:30;22.10;99.90
9776;DHT22;4927;52.472;13.108;2022-08-19T17:24:47;22.00;99.90
9776;DHT22;4927;52.472;13.108;2022-08-19T17:29:54;21.90;99.90
9776;DHT22;4927;52.472;13.108;2022-08-19T17:38:26;21.80;99.90
9776;DHT22;4927;52.472;13.108;2022-08-19T17:43:31;21.70;99.90
9776;DHT22;4927;52.472;13.108;2022-08-19T17:48:37;21.70;99.90
9776;DHT22;4927;52.472;13.108;2022-08-19T17:53:44;21.70;99.90
9776;DHT22;4927;52.472;13.108;2022-08-19T17:58:50;21.70;99.90
9776;DHT22;4927;52.472;13.108;2022-08-19T18:03:56;21.60;99.90
9776;DHT22;4927;52.472;13.108;2022-08-19T18:09:03;21.60;99.90
9776;DHT22;4927;52.472;13.108;2022-08-19T18:14:09;21.60;99.90
9776;DHT22;4927;52.472;13.108;2022-08-19T18:19:13;21.60;99.90
9776;DHT22;4927;52.472;13.108;2022-08-19T18:24:20;21.50;99.90
9776;DHT22;4927;52.472;13.108;2022-08-19T18:29:26;21.50;99.90
9776;DHT22;4927;52.472;13.108;2022-08-19T18:34:34;21.50;99.90
9776;DHT22;4927;52.472;13.108;2022-08-19T18:39:39;21.40;99.90
9776;DHT22;4927;52.472;13.108;2022-08-19T18:44:50;21.40;99.90
9776;DHT22;4927;52.472;13.108;2022-08-19T18:50:05;21.30;99.90
9776;DHT22;4927;52.472;13.108;2022-08-19T18:55:12;21.30;99.90
9776;DHT22;4927;52.472;13.108;2022-08-19T19:00:16;21.40;99.90
9776;DHT22;4927;52.472;13.108;2022-08-19T19:05:23;21.40;99.90
9776;DHT22;4927;52.472;13.108;2022-08-19T19:10:30;21.30;99.90
9776;DHT22;4927;52.472;13.108;2022-08-19T19:15:36;21.30;99.90
9776;DHT22;4927;52.472;13.108;2022-08-19T19:20:43;21.30;99.90
9776;DHT22;4927;52.472;13.108;2022-08-19T19:25:49;21.30;99.90
9776;DHT22;4927;52.472;13.108;2022-08-19T19:30:56;21.30;99.90
9776;DHT22;4927;52.472;13.108;2022-08-19T19:36:03;21.30;99.90
9776;DHT22;4927;52.472;13.108;2022-08-19T19:41:11;21.20;99.90
9776;DHT22;4927;52.472;13.108;2022-08-19T19:46:14;21.20;99.90
9776;DHT22;4927;52.472;13.108;2022-08-19T19:51:21;21.20;99.90
9776;DHT22;4927;52.472;13.108;2022-08-19T19:56:27;21.20;99.90
9776;DHT22;4927;52.472;13.108;2022-08-19T20:01:33;21.10;99.90
9776;DHT22;4927;52.472;13.108;2022-08-19T20:06:42;21.10;99.90
9776;DHT22;4927;52.472;13.108;2022-08-19T20:11:51;21.10;99.90
9776;DHT22;4927;52.472;13.108;2022-08-19T20:16:56;21.00;99.90
9776;DHT22;4927;52.472;13.108;2022-08-19T20:22:04;21.00;99.90
9776;DHT22;4927;52.472;13.108;2022-08-19T20:27:10;21.00;99.90
9776;DHT22;4927;52.472;13.108;2022-08-19T20:32:14;21.00;99.90
9776;DHT22;4927;52.472;13.108;2022-08-19T20:37:20;20.90;99.90
9776;DHT22;4927;52.472;13.108;2022-08-19T20:42:27;20.90;99.90
9776;DHT22;4927;52.472;13.108;2022-08-19T20:47:35;20.80;99.90
9776;DHT22;4927;52.472;13.108;2022-08-19T20:52:39;20.80;99.90
9776;DHT22;4927;52.472;13.108;2022-08-19T20:57:45;20.80;99.90
9776;DHT22;4927;52.472;13.108;2022-08-19T21:02:51;20.80;99.90
9776;DHT22;4927;52.472;13.108;2022-08-19T21:09:09;20.70;99.90
9776;DHT22;4927;52.472;13.108;2022-08-19T21:14:16;20.60;99.90
9776;DHT22;4927;52.472;13.108;2022-08-19T21:19:22;20.60;99.90
9776;DHT22;4927;52.472;13.108;2022-08-19T21:24:29;20.50;99.90
9776;DHT22;4927;52.472;13.108;2022-08-19T21:29:35;20.50;99.90
9776;DHT22;4927;52.472;13.108;2022-08-19T21:34:42;20.50;99.90
9776;DHT22;4927;52.472;13.108;2022-08-19T21:39:48;20.50;99.90
9776;DHT22;4927;52.472;13.108;2022-08-19T21:44:53;20.50;99.90
9776;DHT22;4927;52.472;13.108;2022-08-19T21:50:00;20.60;99.90
9776;DHT22;4927;52.472;13.108;2022-08-19T21:55:07;20.60;99.90
9776;DHT22;4927;52.472;13.108;2022-08-19T22:00:17;20.60;99.90
9776;DHT22;4927;52.472;13.108;2022-08-19T22:05:22;20.60;99.90
9776;DHT22;4927;52.472;13.108;2022-08-19T22:10:29;20.70;99.90
9776;DHT22;4927;52.472;13.108;2022-08-19T22:15:34;20.70;99.90
9776;DHT22;4927;52.472;13.108;2022-08-19T22:20:49;20.70;99.90
9776;DHT22;4927;52.472;13.108;2022-08-19T22:31:50;20.70;99.90
9776;DHT22;4927;52.472;13.108;2022-08-19T22:36:57;20.70;99.90
9776;DHT22;4927;52.472;13.108;2022-08-19T22:42:03;20.70;99.90
9776;DHT22;4927;52.472;13.108;2022-08-19T22:47:09;20.70;99.90
9776;DHT22;4927;52.472;13.108;2022-08-19T22:52:16;20.80;99.90
9776;DHT22;4927;52.472;13.108;2022-08-19T22:57:22;20.80;99.90
9776;DHT22;4927;52.472;13.108;2022-08-19T23:02:31;20.80;99.90
9776;DHT22;4927;52.472;13.108;2022-08-19T23:07:35;20.70;99.90
9776;DHT22;4927;52.472;13.108;2022-08-19T23:12:45;20.70;99.90
9776;DHT22;4927;52.472;13.108;2022-08-19T23:17:49;20.70;99.90
9776;DHT22;4927;52.472;13.108;2022-08-19T23:22:55;20.70;99.90
9776;DHT22;4927;52.472;13.108;2022-08-19T23:28:03;20.60;99.90
9776;DHT22;4927;52.472;13.108;2022-08-19T23:33:20;20.60;99.90
9776;DHT22;4927;52.472;13.108;2022-08-19T23:38:27;20.50;99.90
9776;DHT22;4927;52.472;13.108;2022-08-19T23:43:31;20.60;99.90
9776;DHT22;4927;52.472;13.108;2022-08-19T23:48:37;20.50;99.90
9776;DHT22;4927;52.472;13.108;2022-08-19T23:53:43;20.50;99.90
9776;DHT22;4927;52.472;13.108;2022-08-19T23:58:50;20.50;99.90
